createdAt,value
2019-04-03T00:02:08.358Z,0.90
2019-04-03T00:04:36.819Z,0.90
2019-04-03T00:07:06.031Z,0.97
2019-04-03T00:09:36.530Z,0.80
2019-04-03T00:12:05.066Z,1.10
2019-04-03T00:14:33.552Z,1.00
2019-04-03T00:17:01.984Z,0.80
2019-04-03T00:19:30.719Z,1.10
2019-04-03T00:21:59.114Z,1.00
2019-04-03T00:24:27.520Z,1.10
2019-04-03T00:26:55.987Z,0.90
2019-04-03T00:29:24.401Z,0.90
2019-04-03T00:31:53.708Z,1.00
2019-04-03T00:34:23.475Z,0.90
2019-04-03T00:36:53.202Z,0.80
2019-04-03T00:39:22.648Z,0.80
2019-04-03T00:41:52.938Z,0.80
2019-04-03T00:44:24.259Z,0.90
2019-04-03T00:46:53.847Z,1.00
2019-04-03T00:49:25.707Z,1.00
2019-04-03T00:51:53.367Z,1.00
2019-04-03T00:54:21.969Z,1.00
2019-04-03T00:56:50.404Z,0.90
2019-04-03T00:59:19.025Z,1.10
2019-04-03T01:01:47.492Z,1.10
2019-04-03T01:04:15.878Z,1.90
2019-04-03T01:06:44.311Z,1.93
2019-04-03T01:09:12.717Z,1.50
2019-04-03T01:11:41.190Z,1.60
2019-04-03T01:14:09.774Z,1.80
2019-04-03T01:16:38.255Z,1.53
2019-04-03T01:19:06.790Z,1.40
2019-04-03T01:21:37.215Z,1.37
2019-04-03T01:24:07.679Z,1.50
2019-04-03T01:26:35.933Z,1.10
2019-04-03T01:29:04.402Z,0.83
2019-04-03T01:31:32.807Z,1.20
2019-04-03T01:34:01.367Z,1.00
2019-04-03T01:36:29.785Z,1.00
2019-04-03T01:38:58.342Z,1.10
2019-04-03T01:41:26.949Z,1.27
2019-04-03T01:43:55.407Z,1.27
2019-04-03T01:46:23.903Z,1.37
2019-04-03T01:48:52.407Z,1.70
2019-04-03T01:51:20.849Z,1.30
2019-04-03T01:53:49.210Z,1.50
2019-04-03T01:56:17.595Z,1.33
2019-04-03T01:58:45.992Z,1.73
2019-04-03T02:01:14.567Z,1.50
2019-04-03T02:03:42.969Z,1.57
2019-04-03T02:06:13.206Z,1.90
2019-04-03T02:08:44.360Z,1.83
2019-04-03T02:11:12.094Z,1.73
2019-04-03T02:13:40.486Z,1.70
2019-04-03T02:16:08.922Z,2.00
2019-04-03T02:18:37.498Z,1.63
2019-04-03T02:21:06.012Z,1.90
2019-04-03T02:23:34.563Z,2.50
2019-04-03T02:26:03.147Z,2.00
2019-04-03T02:28:34.180Z,2.67
2019-04-03T02:31:01.665Z,2.07
2019-04-03T02:33:30.368Z,1.90
2019-04-03T02:35:58.750Z,2.47
2019-04-03T02:38:27.128Z,2.40
2019-04-03T02:40:55.610Z,2.87
2019-04-03T02:43:24.328Z,3.40
2019-04-03T02:45:55.520Z,3.40
2019-04-03T02:48:22.991Z,3.10
2019-04-03T02:50:51.643Z,3.00
2019-04-03T02:53:20.588Z,3.73
2019-04-03T02:55:48.975Z,3.23
2019-04-03T02:58:21.326Z,3.70
2019-04-03T03:00:47.570Z,3.30
2019-04-03T03:03:17.998Z,3.63
2019-04-03T03:05:46.581Z,3.30
2019-04-03T03:08:16.265Z,3.57
2019-04-03T03:10:45.904Z,3.63
2019-04-03T03:13:15.374Z,3.23
2019-04-03T03:15:45.101Z,3.63
2019-04-03T03:18:14.138Z,3.20
2019-04-03T03:20:42.882Z,3.63
2019-04-03T03:23:11.937Z,3.40
2019-04-03T03:28:34.479Z,3.90
2019-04-03T03:31:06.077Z,5.67
2019-04-03T03:33:37.806Z,6.90
2019-04-03T03:36:05.930Z,5.50
2019-04-03T03:38:38.197Z,6.27
2019-04-03T03:41:05.620Z,5.43
2019-04-03T03:43:38.407Z,5.60
2019-04-03T03:46:05.801Z,10.28
2019-04-03T03:48:34.641Z,9.20
2019-04-03T03:51:04.751Z,6.80
2019-04-03T03:53:33.888Z,6.80
2019-04-03T03:56:02.981Z,8.83
2019-04-03T03:58:32.378Z,14.20
2019-04-03T04:01:01.364Z,14.90
2019-04-03T04:03:30.358Z,6.60
2019-04-03T04:05:59.429Z,5.80
2019-04-03T04:08:29.862Z,4.57
2019-04-03T04:10:59.785Z,4.63
2019-04-03T04:13:28.740Z,4.97
2019-04-03T04:15:57.620Z,4.57
2019-04-03T04:18:26.858Z,4.70
2019-04-03T04:20:55.432Z,5.17
2019-04-03T04:23:25.206Z,5.00
2019-04-03T04:25:54.104Z,4.83
2019-04-03T04:28:22.837Z,5.57
2019-04-03T04:30:51.912Z,4.80
2019-04-03T04:33:20.507Z,6.10
2019-04-03T04:35:52.419Z,6.30
2019-04-03T04:38:21.153Z,5.50
2019-04-03T04:40:49.538Z,6.17
2019-04-03T04:43:17.936Z,5.97
2019-04-03T04:45:46.545Z,5.73
2019-04-03T04:48:16.555Z,5.80
2019-04-03T04:50:45.188Z,4.90
2019-04-03T04:53:13.573Z,4.90
2019-04-03T04:55:42.084Z,4.80
2019-04-03T04:58:11.738Z,5.80
2019-04-03T05:00:40.630Z,4.60
2019-04-03T05:03:09.049Z,4.70
2019-04-03T05:05:37.461Z,4.43
2019-04-03T05:08:05.940Z,4.30
2019-04-03T05:10:34.946Z,4.10
2019-04-03T05:13:04.947Z,5.50
2019-04-03T05:15:33.414Z,3.50
2019-04-03T05:18:02.291Z,3.50
2019-04-03T05:20:30.754Z,3.63
2019-04-03T05:22:59.330Z,4.13
2019-04-03T05:25:29.295Z,5.23
2019-04-03T05:27:57.959Z,4.33
2019-04-03T05:30:32.326Z,4.17
2019-04-03T05:33:01.738Z,4.47
2019-04-03T05:35:30.159Z,3.73
2019-04-03T05:37:58.575Z,4.07
2019-04-03T05:40:27.101Z,3.90
2019-04-03T05:42:55.701Z,3.97
2019-04-03T05:45:24.476Z,3.50
2019-04-03T05:47:52.879Z,4.03
2019-04-03T05:50:21.415Z,3.40
2019-04-03T05:52:50.163Z,3.70
2019-04-03T05:55:18.883Z,3.57
2019-04-03T05:57:47.270Z,3.37
2019-04-03T06:00:15.826Z,4.27
2019-04-03T06:02:44.454Z,3.80
2019-04-03T06:05:13.420Z,3.80
2019-04-03T06:07:43.174Z,3.40
2019-04-03T06:10:11.996Z,3.50
2019-04-03T06:12:40.549Z,3.30
2019-04-03T06:15:10.339Z,4.87
2019-04-03T06:17:38.980Z,3.47
2019-04-03T06:20:11.285Z,3.47
2019-04-03T06:22:38.892Z,3.70
2019-04-03T06:25:13.437Z,3.10
2019-04-03T06:27:41.172Z,3.73
2019-04-03T06:30:10.823Z,3.53
2019-04-03T06:32:40.019Z,3.30
2019-04-03T06:35:08.796Z,3.37
2019-04-03T06:37:37.205Z,3.27
2019-04-03T06:40:08.444Z,4.03
2019-04-03T06:42:36.853Z,3.70
2019-04-03T06:45:06.949Z,3.23
2019-04-03T06:47:35.760Z,3.90
2019-04-03T06:50:06.503Z,4.33
2019-04-03T06:52:35.129Z,3.50
2019-04-03T06:55:04.233Z,3.00
2019-04-03T06:57:32.613Z,3.60
2019-04-03T07:00:01.305Z,3.40
2019-04-03T07:02:32.047Z,5.00
2019-04-03T07:05:02.446Z,3.30
2019-04-03T07:07:34.360Z,3.73
2019-04-03T07:10:00.301Z,3.37
2019-04-03T07:12:28.926Z,4.33
2019-04-03T07:14:57.310Z,4.50
2019-04-03T07:17:26.094Z,4.50
2019-04-03T07:19:54.649Z,4.37
2019-04-03T07:22:23.105Z,3.90
2019-04-03T07:24:51.783Z,4.47
2019-04-03T07:27:20.387Z,4.77
2019-04-03T07:29:49.787Z,3.93
2019-04-03T07:32:18.262Z,3.90
2019-04-03T07:34:46.648Z,4.40
2019-04-03T07:37:15.627Z,5.27
2019-04-03T07:39:45.210Z,4.37
2019-04-03T07:42:14.022Z,3.70
2019-04-03T07:44:42.705Z,3.60
2019-04-03T07:47:11.077Z,3.70
2019-04-03T07:49:40.281Z,3.70
2019-04-03T07:52:08.941Z,3.50
2019-04-03T07:54:37.685Z,4.17
2019-04-03T07:57:09.222Z,3.67
2019-04-03T07:59:36.242Z,3.70
2019-04-03T08:02:04.740Z,4.63
2019-04-03T08:04:33.277Z,4.73
2019-04-03T08:07:01.764Z,4.30
2019-04-03T08:09:30.485Z,5.00
2019-04-03T08:11:58.839Z,5.20
2019-04-03T08:14:27.258Z,4.97
2019-04-03T08:16:56.814Z,5.27
2019-04-03T08:19:25.609Z,5.40
2019-04-03T08:21:54.002Z,4.80
2019-04-03T08:24:22.502Z,5.50
2019-04-03T08:26:52.090Z,4.70
2019-04-03T08:29:21.042Z,4.77
2019-04-03T08:31:49.574Z,4.80
2019-04-03T08:34:18.834Z,5.50
2019-04-03T08:36:47.539Z,5.27
2019-04-03T08:39:16.981Z,5.23
2019-04-03T08:41:45.886Z,8.20
2019-04-03T08:44:14.364Z,4.83
2019-04-03T08:46:43.904Z,5.00
2019-04-03T08:49:12.519Z,5.20
2019-04-03T08:51:41.064Z,4.93
2019-04-03T08:54:10.745Z,4.33
2019-04-03T08:56:39.892Z,4.43
2019-04-03T08:59:08.337Z,4.80
2019-04-03T09:01:37.301Z,5.00
2019-04-03T09:04:05.824Z,6.30
2019-04-03T09:06:34.498Z,5.47
2019-04-03T09:09:04.822Z,4.80
2019-04-03T09:11:34.085Z,5.77
2019-04-03T09:14:03.533Z,5.00
2019-04-03T09:16:32.251Z,4.47
2019-04-03T09:19:00.766Z,4.43
2019-04-03T09:21:29.276Z,4.40
2019-04-03T09:23:58.314Z,4.60
2019-04-03T09:26:26.924Z,4.37
2019-04-03T09:28:55.505Z,4.77
2019-04-03T09:31:24.090Z,4.77
2019-04-03T09:33:52.515Z,4.70
2019-04-03T09:36:20.907Z,4.73
2019-04-03T09:38:49.315Z,5.30
2019-04-03T09:41:19.558Z,3.83
2019-04-03T09:43:47.871Z,4.10
2019-04-03T09:46:16.670Z,3.77
2019-04-03T09:48:45.244Z,3.50
2019-04-03T09:51:13.895Z,3.60
2019-04-03T09:53:42.556Z,3.30
2019-04-03T09:56:11.001Z,2.80
2019-04-03T09:58:39.705Z,2.57
2019-04-03T10:01:08.469Z,2.90
2019-04-03T10:03:37.130Z,3.00
2019-04-03T10:06:05.926Z,3.00
2019-04-03T10:08:34.330Z,4.33
2019-04-03T10:11:02.792Z,3.40
2019-04-03T10:13:32.823Z,3.30
2019-04-03T10:16:03.885Z,3.00
2019-04-03T10:18:31.568Z,3.10
2019-04-03T10:21:00.279Z,3.00
2019-04-03T10:23:30.190Z,3.13
2019-04-03T10:25:59.091Z,3.60
2019-04-03T10:28:27.582Z,3.63
2019-04-03T10:30:56.026Z,3.30
2019-04-03T10:33:24.496Z,3.50
2019-04-03T10:35:52.885Z,3.50
2019-04-03T10:38:21.638Z,3.23
2019-04-03T10:40:50.356Z,3.27
2019-04-03T10:43:18.918Z,3.53
2019-04-03T10:45:47.466Z,4.30
2019-04-03T10:48:15.869Z,4.63
2019-04-03T10:50:44.391Z,5.13
2019-04-03T10:53:12.852Z,5.93
2019-04-03T10:55:41.543Z,6.50
2019-04-03T10:58:10.286Z,7.03
2019-04-03T11:00:38.822Z,7.03
2019-04-03T11:03:07.419Z,6.27
2019-04-03T11:05:36.101Z,6.47
2019-04-03T11:08:04.998Z,5.80
2019-04-03T11:10:33.569Z,5.87
2019-04-03T11:13:03.690Z,5.53
2019-04-03T11:15:32.556Z,7.10
2019-04-03T11:18:00.891Z,6.70
2019-04-03T11:20:29.450Z,7.93
2019-04-03T11:23:06.088Z,7.67
2019-04-03T11:25:28.420Z,6.47
2019-04-03T11:27:57.268Z,6.50
2019-04-03T11:30:45.202Z,7.80
2019-04-03T11:33:14.097Z,8.83
2019-04-03T11:35:43.616Z,8.20
2019-04-03T11:38:16.939Z,10.40
2019-04-03T11:40:42.188Z,10.43
2019-04-03T11:43:10.938Z,13.43
2019-04-03T11:45:39.741Z,12.30
2019-04-03T11:48:08.259Z,10.87
2019-04-03T11:50:39.453Z,9.03
2019-04-03T11:53:07.704Z,5.97
2019-04-03T11:55:36.333Z,4.20
2019-04-03T11:58:04.959Z,3.10
2019-04-03T12:00:35.597Z,3.07
2019-04-03T12:03:04.624Z,3.00
2019-04-03T12:05:33.143Z,3.50
2019-04-03T12:08:01.775Z,5.80
2019-04-03T12:10:30.151Z,6.60
2019-04-03T12:12:58.538Z,5.53
2019-04-03T12:15:27.142Z,5.10
2019-04-03T12:17:55.599Z,5.60
2019-04-03T12:20:24.127Z,4.83
2019-04-03T12:22:54.602Z,4.90
2019-04-03T12:25:23.046Z,5.97
2019-04-03T12:27:51.429Z,6.67
2019-04-03T12:30:20.613Z,6.73
2019-04-03T12:32:50.245Z,5.67
2019-04-03T12:35:18.702Z,4.83
2019-04-03T12:37:49.466Z,5.53
2019-04-03T12:40:17.438Z,5.03
2019-04-03T12:42:45.880Z,4.97
2019-04-03T12:45:17.477Z,5.23
2019-04-03T12:47:45.302Z,5.53
2019-04-03T12:50:15.256Z,4.57
2019-04-03T12:52:44.910Z,4.77
2019-04-03T12:55:15.165Z,4.07
2019-04-03T12:57:43.719Z,3.40
2019-04-03T13:00:13.465Z,3.40
2019-04-03T13:02:42.460Z,2.53
2019-04-03T13:05:13.123Z,3.40
2019-04-03T13:07:41.608Z,3.67
2019-04-03T13:10:11.022Z,3.50
2019-04-03T13:12:39.657Z,3.10
2019-04-03T13:15:10.427Z,4.10
2019-04-03T13:17:39.169Z,4.30
2019-04-03T13:20:08.449Z,4.00
2019-04-03T13:22:37.756Z,3.80
2019-04-03T13:25:07.544Z,3.73
2019-04-03T13:27:36.132Z,2.87
2019-04-03T13:30:11.963Z,2.73
2019-04-03T13:32:40.618Z,3.70
2019-04-03T13:35:09.337Z,3.60
2019-04-03T13:37:37.775Z,2.97
2019-04-03T13:40:07.585Z,2.70
2019-04-03T13:42:36.511Z,2.90
2019-04-03T13:45:08.157Z,2.20
2019-04-03T13:47:39.770Z,1.90
2019-04-03T13:50:08.446Z,2.03
2019-04-03T13:52:41.791Z,2.37
2019-04-03T13:55:08.046Z,2.63
2019-04-03T13:57:36.445Z,2.77
2019-04-03T14:00:18.552Z,2.50
2019-04-03T14:02:37.499Z,2.80
2019-04-03T14:05:07.853Z,3.20
2019-04-03T14:07:36.445Z,3.47
2019-04-03T14:10:08.784Z,3.70
2019-04-03T14:12:43.325Z,3.97
2019-04-03T14:15:09.054Z,4.20
2019-04-03T14:17:37.630Z,3.93
2019-04-03T14:20:07.498Z,3.80
2019-04-03T14:22:36.183Z,4.57
2019-04-03T14:25:17.897Z,4.40
2019-04-03T14:27:38.401Z,4.07
2019-04-03T14:30:11.147Z,2.77
2019-04-03T14:32:39.243Z,3.30
2019-04-03T14:35:39.027Z,3.13
2019-04-03T14:37:39.889Z,3.80
2019-04-03T14:40:11.052Z,3.40
2019-04-03T14:42:38.902Z,3.60
2019-04-03T14:45:08.160Z,5.03
2019-04-03T14:47:38.156Z,4.77
2019-04-03T14:50:08.188Z,3.60
2019-04-03T14:52:36.612Z,4.67
2019-04-03T14:55:23.409Z,4.80
2019-04-03T14:57:37.294Z,4.50
2019-04-03T15:00:23.463Z,5.57
2019-04-03T15:02:40.112Z,5.17
2019-04-03T15:05:09.202Z,5.90
2019-04-03T15:07:37.581Z,5.67
2019-04-03T15:10:07.680Z,6.33
2019-04-03T15:12:39.339Z,6.57
2019-04-03T15:15:07.149Z,6.90
2019-04-03T15:17:37.627Z,6.97
2019-04-03T15:20:12.335Z,7.83
2019-04-03T15:22:40.866Z,8.60
2019-04-03T15:25:09.629Z,9.10
2019-04-03T15:27:38.288Z,8.90
2019-04-03T15:30:10.844Z,8.13
2019-04-03T15:32:40.044Z,11.03
2019-04-03T15:35:09.068Z,9.07
2019-04-03T15:37:39.960Z,8.60
2019-04-03T15:40:09.333Z,10.80
2019-04-03T15:42:40.328Z,16.53
2019-04-03T15:45:09.933Z,8.20
2019-04-03T15:47:44.212Z,7.73
2019-04-03T15:50:09.740Z,4.77
2019-04-03T15:52:38.694Z,3.07
2019-04-03T15:55:07.878Z,3.33
2019-04-03T15:57:39.160Z,1.80
2019-04-03T16:00:12.536Z,3.33
2019-04-03T16:02:44.503Z,1.67
2019-04-03T16:05:11.931Z,1.20
2019-04-03T16:07:41.610Z,1.30
2019-04-03T16:10:10.624Z,0.80
2019-04-03T16:12:42.969Z,0.80
2019-04-03T16:15:09.844Z,0.77
2019-04-03T16:17:39.123Z,0.70
2019-04-03T16:20:10.313Z,0.47
2019-04-03T16:22:39.142Z,0.70
2019-04-03T16:25:09.228Z,0.70
2019-04-03T16:27:38.043Z,1.30
2019-04-03T16:30:14.195Z,1.20
2019-04-03T16:32:41.327Z,0.70
2019-04-03T16:35:12.662Z,0.83
2019-04-03T16:37:40.279Z,0.37
2019-04-03T16:40:09.514Z,0.53
2019-04-03T16:42:38.093Z,0.40
2019-04-03T16:45:11.186Z,0.57
2019-04-03T16:47:40.221Z,0.67
2019-04-03T16:50:11.257Z,1.00
2019-04-03T16:52:40.059Z,0.80
2019-04-03T16:55:09.138Z,0.90
2019-04-03T16:57:38.249Z,0.30
2019-04-03T17:00:10.078Z,0.20
2019-04-03T17:02:38.896Z,0.20
2019-04-03T17:05:11.179Z,0.30
2019-04-03T17:07:39.313Z,0.40
2019-04-03T17:10:10.710Z,1.40
2019-04-03T17:12:39.601Z,0.83
2019-04-03T17:15:09.790Z,1.20
2019-04-03T17:17:39.017Z,1.00
2019-04-03T17:20:08.524Z,0.60
2019-04-03T17:22:39.110Z,0.93
2019-04-03T17:25:07.923Z,1.10
2019-04-03T17:27:36.388Z,1.10
2019-04-03T17:30:07.243Z,1.37
2019-04-03T17:32:35.630Z,1.20
2019-04-03T17:35:07.513Z,0.90
2019-04-03T17:37:35.806Z,1.03
2019-04-03T17:40:06.768Z,1.60
2019-04-03T17:42:35.269Z,3.73
2019-04-03T17:45:05.082Z,17.00
2019-04-03T17:47:33.534Z,42.00
2019-04-03T17:50:06.052Z,2.27
2019-04-03T17:52:36.096Z,2.00
2019-04-03T17:55:05.291Z,1.30
2019-04-03T17:57:33.784Z,1.20
2019-04-03T18:00:02.302Z,1.60
2019-04-03T18:02:30.699Z,1.80
2019-04-03T18:04:59.187Z,2.77
2019-04-03T18:07:28.469Z,2.53
2019-04-03T18:09:57.294Z,2.43
2019-04-03T18:12:25.718Z,2.30
2019-04-03T18:14:55.668Z,2.43
2019-04-03T18:17:25.185Z,2.77
2019-04-03T18:19:53.656Z,2.50
2019-04-03T18:22:22.186Z,3.37
2019-04-03T18:24:51.848Z,2.37
2019-04-03T18:27:20.737Z,3.17
2019-04-03T18:29:49.207Z,2.83
2019-04-03T18:32:18.022Z,1.50
2019-04-03T18:34:50.748Z,1.47
2019-04-03T18:37:17.038Z,2.77
2019-04-03T18:39:45.452Z,3.20
2019-04-03T18:42:14.056Z,3.03
2019-04-03T18:44:42.472Z,1.90
2019-04-03T18:47:10.925Z,2.23
2019-04-03T18:49:39.931Z,2.60
2019-04-03T18:52:08.644Z,2.23
2019-04-03T18:54:37.127Z,2.60
2019-04-03T18:57:05.505Z,4.07
2019-04-03T18:59:34.025Z,4.20
2019-04-03T19:02:03.805Z,3.13
2019-04-03T19:04:32.688Z,2.00
2019-04-03T19:07:01.133Z,2.30
2019-04-03T19:09:29.743Z,2.70
2019-04-03T19:12:07.922Z,2.30
2019-04-03T19:14:31.511Z,1.60
2019-04-03T19:16:58.575Z,1.63
2019-04-03T19:19:27.059Z,2.30
2019-04-03T19:22:16.452Z,1.70
2019-04-03T19:24:44.922Z,2.10
2019-04-03T19:27:13.276Z,1.60
2019-04-03T19:29:41.733Z,1.40
2019-04-03T19:32:12.230Z,1.50
2019-04-03T19:34:40.404Z,1.60
2019-04-03T19:51:02.712Z,2.20
2019-04-03T19:53:29.743Z,1.93
2019-04-03T19:55:58.129Z,1.70
2019-04-03T19:58:28.844Z,2.20
2019-04-03T20:03:34.841Z,1.33
2019-04-03T20:06:03.313Z,2.17
2019-04-03T20:08:31.776Z,1.40
2019-04-03T20:11:00.164Z,1.43
2019-04-03T20:13:28.683Z,1.30
2019-04-03T20:15:57.154Z,1.67
2019-04-03T20:18:26.035Z,2.10
2019-04-03T20:20:55.061Z,1.93
2019-04-03T20:23:23.571Z,2.00
2019-04-03T20:26:12.778Z,1.63
2019-04-03T20:28:41.379Z,2.00
2019-04-03T20:31:09.951Z,2.00
2019-04-03T20:33:38.542Z,2.17
2019-04-03T20:36:07.118Z,2.00
2019-04-03T20:38:37.322Z,2.27
2019-04-03T20:41:05.763Z,1.80
2019-04-03T20:43:34.411Z,2.33
2019-04-03T20:46:02.973Z,2.40
2019-04-03T20:48:32.261Z,2.70
2019-04-03T20:51:00.661Z,2.37
2019-04-03T20:53:29.225Z,2.40
2019-04-03T20:55:58.129Z,3.07
2019-04-03T20:58:27.098Z,3.47
2019-04-03T21:01:06.031Z,4.20
2019-04-03T21:03:25.840Z,4.40
2019-04-03T21:05:54.242Z,4.33
2019-04-03T21:08:22.868Z,4.43
2019-04-03T21:10:51.355Z,4.23
2019-04-03T21:13:20.031Z,5.00
2019-04-03T21:15:48.532Z,5.67
2019-04-03T21:18:16.919Z,6.17
2019-04-03T21:20:45.330Z,6.97
2019-04-03T21:23:13.794Z,7.10
2019-04-03T21:25:42.287Z,8.57
2019-04-03T21:28:11.598Z,10.50
2019-04-03T21:30:40.290Z,13.40
2019-04-03T21:33:08.716Z,14.33
2019-04-03T21:35:37.475Z,14.47
2019-04-03T21:38:05.958Z,15.27
2019-04-03T21:40:34.605Z,17.40
2019-04-03T21:43:03.099Z,19.03
2019-04-03T21:45:31.783Z,22.63
2019-04-03T21:48:00.357Z,20.00
2019-04-03T21:50:29.024Z,14.60
2019-04-03T21:52:57.513Z,11.10
2019-04-03T21:55:26.026Z,9.77
2019-04-03T21:57:54.756Z,8.60
2019-04-03T22:00:52.298Z,8.13
2019-04-03T22:03:20.781Z,6.77
2019-04-03T22:05:49.309Z,5.50
2019-04-03T22:08:17.709Z,3.80
2019-04-03T22:10:46.116Z,3.30
2019-04-03T22:13:14.601Z,3.13
2019-04-03T22:15:45.274Z,3.27
2019-04-03T22:18:13.162Z,3.17
2019-04-03T22:20:41.728Z,3.00
2019-04-03T22:23:10.138Z,3.00
2019-04-03T22:25:39.474Z,3.30
2019-04-03T22:28:08.402Z,3.00
2019-04-03T22:30:36.790Z,3.50
2019-04-03T22:33:05.185Z,3.27
2019-04-03T22:35:33.590Z,26.20
2019-04-03T22:38:02.017Z,4.20
2019-04-03T22:40:30.689Z,2.90
2019-04-03T22:42:59.174Z,2.50
2019-04-03T22:45:27.748Z,2.80
2019-04-03T22:47:56.835Z,2.40
2019-04-03T22:50:25.289Z,2.57
2019-04-03T22:52:53.708Z,3.20
2019-04-03T22:55:22.099Z,3.90
2019-04-03T22:57:51.150Z,3.33
2019-04-03T23:00:19.776Z,3.63
2019-04-03T23:02:48.198Z,3.57
2019-04-03T23:05:17.679Z,3.53
2019-04-03T23:07:46.233Z,3.53
2019-04-03T23:10:14.926Z,3.60
2019-04-03T23:12:43.337Z,3.67
2019-04-03T23:15:12.105Z,3.90
2019-04-03T23:17:40.685Z,4.10
2019-04-03T23:20:09.278Z,4.00
2019-04-03T23:22:37.733Z,4.37
2019-04-03T23:25:07.075Z,4.40
2019-04-03T23:27:35.469Z,4.20
2019-04-03T23:30:06.001Z,4.40
2019-04-03T23:32:34.595Z,4.30
2019-04-03T23:35:03.053Z,3.93
2019-04-03T23:37:31.623Z,4.73
2019-04-03T23:40:01.043Z,4.40
2019-04-03T23:42:29.944Z,4.63
2019-04-03T23:44:58.337Z,4.80
2019-04-03T23:47:26.790Z,4.63
2019-04-03T23:49:55.411Z,4.60
2019-04-03T23:52:23.972Z,4.63
2019-04-03T23:54:52.387Z,4.60
2019-04-03T23:57:20.795Z,4.60
2019-04-03T23:59:49.280Z,4.47
